sensor_id;sensor_type;location;lat;lon;timestamp;P1;durP1;ratioP1;P2;durP2;ratioP2
44270;SDS011;29963;44.594;11.368;2023-03-01T00:01:24;27.90;;;21.63;;
44270;SDS011;29963;44.594;11.368;2023-03-01T00:03:52;25.38;;;20.15;;
44270;SDS011;29963;44.594;11.368;2023-03-01T00:06:18;31.98;;;22.20;;
44270;SDS011;29963;44.594;11.368;2023-03-01T00:08:44;30.65;;;21.75;;
44270;SDS011;29963;44.594;11.368;2023-03-01T00:13:55;28.63;;;21.35;;
44270;SDS011;29963;44.594;11.368;2023-03-01T00:16:24;28.00;;;21.40;;
44270;SDS011;29963;44.594;11.368;2023-03-01T00:18:51;29.63;;;21.88;;
44270;SDS011;29963;44.594;11.368;2023-03-01T00:21:20;25.60;;;21.05;;
44270;SDS011;29963;44.594;11.368;2023-03-01T00:23:47;28.27;;;20.15;;
44270;SDS011;29963;44.594;11.368;2023-03-01T00:26:16;24.45;;;19.65;;
44270;SDS011;29963;44.594;11.368;2023-03-01T00:28:43;29.27;;;21.52;;
44270;SDS011;29963;44.594;11.368;2023-03-01T00:31:11;29.58;;;20.45;;
44270;SDS011;29963;44.594;11.368;2023-03-01T00:33:39;32.65;;;21.13;;
44270;SDS011;29963;44.594;11.368;2023-03-01T00:36:05;26.75;;;19.77;;
44270;SDS011;29963;44.594;11.368;2023-03-01T00:38:34;29.55;;;21.60;;
44270;SDS011;29963;44.594;11.368;2023-03-01T00:41:04;26.30;;;18.55;;
44270;SDS011;29963;44.594;11.368;2023-03-01T00:43:32;26.88;;;20.60;;
44270;SDS011;29963;44.594;11.368;2023-03-01T00:46:02;26.15;;;20.70;;
44270;SDS011;29963;44.594;11.368;2023-03-01T00:48:31;29.05;;;21.08;;
44270;SDS011;29963;44.594;11.368;2023-03-01T00:50:57;30.05;;;21.08;;
44270;SDS011;29963;44.594;11.368;2023-03-01T00:53:39;26.42;;;20.40;;
44270;SDS011;29963;44.594;11.368;2023-03-01T00:56:05;27.17;;;19.90;;
44270;SDS011;29963;44.594;11.368;2023-03-01T00:58:33;27.67;;;20.55;;
44270;SDS011;29963;44.594;11.368;2023-03-01T01:01:00;32.58;;;19.27;;
44270;SDS011;29963;44.594;11.368;2023-03-01T01:03:25;25.00;;;20.15;;
44270;SDS011;29963;44.594;11.368;2023-03-01T01:05:51;30.27;;;21.85;;
44270;SDS011;29963;44.594;11.368;2023-03-01T01:08:18;27.00;;;20.85;;
44270;SDS011;29963;44.594;11.368;2023-03-01T01:10:45;28.52;;;20.10;;
44270;SDS011;29963;44.594;11.368;2023-03-01T01:13:11;29.58;;;20.75;;
44270;SDS011;29963;44.594;11.368;2023-03-01T01:15:40;25.45;;;19.77;;
44270;SDS011;29963;44.594;11.368;2023-03-01T01:18:06;30.45;;;21.52;;
44270;SDS011;29963;44.594;11.368;2023-03-01T01:20:32;34.42;;;19.30;;
44270;SDS011;29963;44.594;11.368;2023-03-01T01:22:59;24.25;;;20.70;;
44270;SDS011;29963;44.594;11.368;2023-03-01T01:25:25;26.27;;;20.73;;
44270;SDS011;29963;44.594;11.368;2023-03-01T01:27:51;26.25;;;20.50;;
44270;SDS011;29963;44.594;11.368;2023-03-01T01:30:16;23.05;;;19.10;;
44270;SDS011;29963;44.594;11.368;2023-03-01T01:32:42;29.25;;;21.00;;
44270;SDS011;29963;44.594;11.368;2023-03-01T01:35:08;29.80;;;20.48;;
44270;SDS011;29963;44.594;11.368;2023-03-01T01:37:33;27.52;;;20.42;;
44270;SDS011;29963;44.594;11.368;2023-03-01T01:39:59;24.70;;;19.65;;
44270;SDS011;29963;44.594;11.368;2023-03-01T01:42:28;25.38;;;20.92;;
44270;SDS011;29963;44.594;11.368;2023-03-01T01:47:51;33.35;;;21.30;;
44270;SDS011;29963;44.594;11.368;2023-03-01T01:50:22;29.52;;;19.98;;
44270;SDS011;29963;44.594;11.368;2023-03-01T01:52:48;29.55;;;19.98;;
44270;SDS011;29963;44.594;11.368;2023-03-01T01:55:19;29.25;;;19.95;;
44270;SDS011;29963;44.594;11.368;2023-03-01T01:57:49;32.15;;;20.40;;
44270;SDS011;29963;44.594;11.368;2023-03-01T02:00:19;27.40;;;19.75;;
44270;SDS011;29963;44.594;11.368;2023-03-01T02:02:48;23.08;;;19.13;;
44270;SDS011;29963;44.594;11.368;2023-03-01T02:05:32;28.65;;;20.63;;
44270;SDS011;29963;44.594;11.368;2023-03-01T02:08:08;32.25;;;20.27;;
44270;SDS011;29963;44.594;11.368;2023-03-01T02:10:36;24.45;;;20.05;;
44270;SDS011;29963;44.594;11.368;2023-03-01T02:13:03;28.98;;;20.50;;
44270;SDS011;29963;44.594;11.368;2023-03-01T02:15:35;28.45;;;20.00;;
44270;SDS011;29963;44.594;11.368;2023-03-01T02:18:03;29.00;;;21.33;;
44270;SDS011;29963;44.594;11.368;2023-03-01T02:23:21;29.08;;;21.20;;
44270;SDS011;29963;44.594;11.368;2023-03-01T02:26:07;28.58;;;20.58;;
44270;SDS011;29963;44.594;11.368;2023-03-01T02:28:40;30.10;;;21.05;;
44270;SDS011;29963;44.594;11.368;2023-03-01T02:31:08;31.30;;;21.63;;
44270;SDS011;29963;44.594;11.368;2023-03-01T02:33:53;27.23;;;20.23;;
44270;SDS011;29963;44.594;11.368;2023-03-01T02:36:28;32.35;;;21.60;;
44270;SDS011;29963;44.594;11.368;2023-03-01T02:38:59;27.15;;;21.88;;
44270;SDS011;29963;44.594;11.368;2023-03-01T02:41:26;24.55;;;19.77;;
44270;SDS011;29963;44.594;11.368;2023-03-01T02:43:55;24.58;;;19.10;;
44270;SDS011;29963;44.594;11.368;2023-03-01T02:46:22;27.83;;;20.38;;
44270;SDS011;29963;44.594;11.368;2023-03-01T02:48:50;27.42;;;20.60;;
44270;SDS011;29963;44.594;11.368;2023-03-01T02:56:32;28.17;;;21.08;;
44270;SDS011;29963;44.594;11.368;2023-03-01T02:59:01;25.33;;;19.73;;
44270;SDS011;29963;44.594;11.368;2023-03-01T03:01:27;29.65;;;21.58;;
44270;SDS011;29963;44.594;11.368;2023-03-01T03:04:09;38.35;;;22.40;;
44270;SDS011;29963;44.594;11.368;2023-03-01T03:06:42;28.23;;;21.42;;
44270;SDS011;29963;44.594;11.368;2023-03-01T03:09:09;29.40;;;21.10;;
44270;SDS011;29963;44.594;11.368;2023-03-01T03:11:35;33.33;;;21.80;;
44270;SDS011;29963;44.594;11.368;2023-03-01T03:14:01;33.35;;;21.85;;
44270;SDS011;29963;44.594;11.368;2023-03-01T03:16:28;28.70;;;20.50;;
44270;SDS011;29963;44.594;11.368;2023-03-01T03:18:54;27.70;;;20.52;;
44270;SDS011;29963;44.594;11.368;2023-03-01T03:21:30;30.33;;;19.77;;
44270;SDS011;29963;44.594;11.368;2023-03-01T03:23:57;28.75;;;20.85;;
44270;SDS011;29963;44.594;11.368;2023-03-01T03:26:22;28.15;;;21.52;;
44270;SDS011;29963;44.594;11.368;2023-03-01T03:28:48;29.58;;;19.48;;
44270;SDS011;29963;44.594;11.368;2023-03-01T03:31:17;27.00;;;20.60;;
44270;SDS011;29963;44.594;11.368;2023-03-01T03:33:43;26.52;;;20.00;;
44270;SDS011;29963;44.594;11.368;2023-03-01T03:36:08;28.95;;;20.00;;
44270;SDS011;29963;44.594;11.368;2023-03-01T03:38:37;25.63;;;20.55;;
44270;SDS011;29963;44.594;11.368;2023-03-01T03:41:07;23.85;;;18.73;;
44270;SDS011;29963;44.594;11.368;2023-03-01T03:43:34;25.88;;;19.77;;
44270;SDS011;29963;44.594;11.368;2023-03-01T03:46:01;28.67;;;19.05;;
44270;SDS011;29963;44.594;11.368;2023-03-01T03:48:31;31.40;;;21.23;;
44270;SDS011;29963;44.594;11.368;2023-03-01T03:50:58;26.75;;;19.88;;
44270;SDS011;29963;44.594;11.368;2023-03-01T03:53:24;27.02;;;20.33;;
44270;SDS011;29963;44.594;11.368;2023-03-01T03:55:52;25.23;;;19.45;;
44270;SDS011;29963;44.594;11.368;2023-03-01T03:58:18;24.83;;;20.10;;
44270;SDS011;29963;44.594;11.368;2023-03-01T04:00:46;29.02;;;20.77;;
44270;SDS011;29963;44.594;11.368;2023-03-01T04:03:13;26.98;;;20.35;;
44270;SDS011;29963;44.594;11.368;2023-03-01T04:05:41;24.95;;;19.60;;
44270;SDS011;29963;44.594;11.368;2023-03-01T04:08:10;30.52;;;20.77;;
44270;SDS011;29963;44.594;11.368;2023-03-01T04:10:37;26.20;;;19.98;;
44270;SDS011;29963;44.594;11.368;2023-03-01T04:13:12;24.00;;;19.15;;
44270;SDS011;29963;44.594;11.368;2023-03-01T04:15:39;31.23;;;20.38;;
44270;SDS011;29963;44.594;11.368;2023-03-01T04:18:08;26.45;;;20.10;;
44270;SDS011;29963;44.594;11.368;2023-03-01T04:20:36;31.00;;;21.25;;
44270;SDS011;29963;44.594;11.368;2023-03-01T04:25:56;30.85;;;20.42;;
44270;SDS011;29963;44.594;11.368;2023-03-01T04:28:23;25.92;;;20.30;;
44270;SDS011;29963;44.594;11.368;2023-03-01T04:30:54;28.05;;;21.52;;
44270;SDS011;29963;44.594;11.368;2023-03-01T04:33:24;27.25;;;20.58;;
44270;SDS011;29963;44.594;11.368;2023-03-01T04:35:50;29.75;;;21.60;;
44270;SDS011;29963;44.594;11.368;2023-03-01T04:38:17;30.50;;;21.20;;
44270;SDS011;29963;44.594;11.368;2023-03-01T04:40:43;27.58;;;21.40;;
44270;SDS011;29963;44.594;11.368;2023-03-01T04:43:09;31.55;;;20.98;;
44270;SDS011;29963;44.594;11.368;2023-03-01T04:45:36;27.52;;;20.45;;
44270;SDS011;29963;44.594;11.368;2023-03-01T04:48:02;29.05;;;22.38;;
44270;SDS011;29963;44.594;11.368;2023-03-01T04:50:28;32.10;;;21.67;;
44270;SDS011;29963;44.594;11.368;2023-03-01T04:52:54;31.67;;;21.67;;
44270;SDS011;29963;44.594;11.368;2023-03-01T04:55:26;25.80;;;20.35;;
44270;SDS011;29963;44.594;11.368;2023-03-01T04:57:52;32.28;;;22.17;;
44270;SDS011;29963;44.594;11.368;2023-03-01T05:00:18;31.77;;;23.08;;
44270;SDS011;29963;44.594;11.368;2023-03-01T05:02:54;31.40;;;22.02;;
44270;SDS011;29963;44.594;11.368;2023-03-01T05:07:56;29.45;;;21.20;;
44270;SDS011;29963;44.594;11.368;2023-03-01T05:10:24;28.42;;;21.30;;
44270;SDS011;29963;44.594;11.368;2023-03-01T05:12:51;28.80;;;21.30;;
44270;SDS011;29963;44.594;11.368;2023-03-01T05:15:18;29.50;;;21.60;;
44270;SDS011;29963;44.594;11.368;2023-03-01T05:17:44;30.83;;;23.75;;
44270;SDS011;29963;44.594;11.368;2023-03-01T05:20:11;31.33;;;22.30;;
44270;SDS011;29963;44.594;11.368;2023-03-01T05:22:36;30.05;;;22.65;;
44270;SDS011;29963;44.594;11.368;2023-03-01T05:25:03;32.33;;;22.42;;
44270;SDS011;29963;44.594;11.368;2023-03-01T05:27:29;34.05;;;22.45;;
44270;SDS011;29963;44.594;11.368;2023-03-01T05:29:55;36.15;;;25.10;;
44270;SDS011;29963;44.594;11.368;2023-03-01T05:32:21;29.83;;;22.17;;
44270;SDS011;29963;44.594;11.368;2023-03-01T05:34:47;30.20;;;20.92;;
44270;SDS011;29963;44.594;11.368;2023-03-01T05:37:13;25.35;;;19.25;;
44270;SDS011;29963;44.594;11.368;2023-03-01T05:39:39;30.10;;;21.85;;
44270;SDS011;29963;44.594;11.368;2023-03-01T05:42:04;31.92;;;21.95;;
44270;SDS011;29963;44.594;11.368;2023-03-01T05:44:30;33.25;;;22.10;;
44270;SDS011;29963;44.594;11.368;2023-03-01T05:46:56;29.20;;;21.40;;
44270;SDS011;29963;44.594;11.368;2023-03-01T05:49:22;31.02;;;21.85;;
44270;SDS011;29963;44.594;11.368;2023-03-01T05:51:49;28.77;;;20.88;;
44270;SDS011;29963;44.594;11.368;2023-03-01T05:54:16;29.58;;;22.13;;
44270;SDS011;29963;44.594;11.368;2023-03-01T05:56:43;31.30;;;21.70;;
44270;SDS011;29963;44.594;11.368;2023-03-01T05:59:09;29.02;;;21.65;;
44270;SDS011;29963;44.594;11.368;2023-03-01T06:01:35;34.10;;;21.92;;
44270;SDS011;29963;44.594;11.368;2023-03-01T06:04:01;31.00;;;21.13;;
44270;SDS011;29963;44.594;11.368;2023-03-01T06:06:28;30.92;;;22.80;;
44270;SDS011;29963;44.594;11.368;2023-03-01T06:08:54;27.55;;;20.65;;
44270;SDS011;29963;44.594;11.368;2023-03-01T06:11:20;29.98;;;21.90;;
44270;SDS011;29963;44.594;11.368;2023-03-01T06:13:46;28.50;;;20.70;;
44270;SDS011;29963;44.594;11.368;2023-03-01T06:16:13;30.75;;;20.98;;
44270;SDS011;29963;44.594;11.368;2023-03-01T06:18:39;29.33;;;21.27;;
44270;SDS011;29963;44.594;11.368;2023-03-01T06:21:05;34.65;;;22.23;;
44270;SDS011;29963;44.594;11.368;2023-03-01T06:23:32;26.85;;;19.95;;
44270;SDS011;29963;44.594;11.368;2023-03-01T06:26:04;31.45;;;20.88;;
44270;SDS011;29963;44.594;11.368;2023-03-01T06:28:31;28.77;;;21.63;;
44270;SDS011;29963;44.594;11.368;2023-03-01T06:30:57;30.10;;;21.73;;
44270;SDS011;29963;44.594;11.368;2023-03-01T06:33:23;30.95;;;22.25;;
44270;SDS011;29963;44.594;11.368;2023-03-01T06:35:49;27.70;;;20.52;;
44270;SDS011;29963;44.594;11.368;2023-03-01T06:38:15;28.13;;;20.52;;
44270;SDS011;29963;44.594;11.368;2023-03-01T06:40:43;34.85;;;22.10;;
44270;SDS011;29963;44.594;11.368;2023-03-01T06:43:09;33.85;;;21.52;;
44270;SDS011;29963;44.594;11.368;2023-03-01T06:45:35;35.08;;;22.70;;
44270;SDS011;29963;44.594;11.368;2023-03-01T06:48:05;31.00;;;21.67;;
44270;SDS011;29963;44.594;11.368;2023-03-01T06:50:31;33.85;;;21.55;;
44270;SDS011;29963;44.594;11.368;2023-03-01T06:52:57;31.17;;;21.52;;
44270;SDS011;29963;44.594;11.368;2023-03-01T06:55:23;29.10;;;22.05;;
44270;SDS011;29963;44.594;11.368;2023-03-01T06:57:55;28.63;;;21.63;;
44270;SDS011;29963;44.594;11.368;2023-03-01T07:00:25;28.52;;;20.85;;
44270;SDS011;29963;44.594;11.368;2023-03-01T07:02:51;30.50;;;20.45;;
44270;SDS011;29963;44.594;11.368;2023-03-01T07:05:17;27.73;;;20.58;;
44270;SDS011;29963;44.594;11.368;2023-03-01T07:07:42;28.63;;;21.38;;
44270;SDS011;29963;44.594;11.368;2023-03-01T07:10:08;28.65;;;19.58;;
44270;SDS011;29963;44.594;11.368;2023-03-01T07:12:34;30.83;;;22.10;;
44270;SDS011;29963;44.594;11.368;2023-03-01T07:15:00;25.50;;;21.50;;
44270;SDS011;29963;44.594;11.368;2023-03-01T07:17:26;30.88;;;22.33;;
44270;SDS011;29963;44.594;11.368;2023-03-01T07:19:51;29.73;;;21.73;;
44270;SDS011;29963;44.594;11.368;2023-03-01T07:22:17;27.20;;;20.80;;
44270;SDS011;29963;44.594;11.368;2023-03-01T07:24:43;29.30;;;21.27;;
44270;SDS011;29963;44.594;11.368;2023-03-01T07:27:09;27.88;;;20.73;;
44270;SDS011;29963;44.594;11.368;2023-03-01T07:29:35;31.10;;;22.10;;
44270;SDS011;29963;44.594;11.368;2023-03-01T07:32:03;34.15;;;22.23;;
44270;SDS011;29963;44.594;11.368;2023-03-01T07:34:30;29.75;;;21.20;;
44270;SDS011;29963;44.594;11.368;2023-03-01T07:36:55;30.60;;;22.60;;
44270;SDS011;29963;44.594;11.368;2023-03-01T07:39:21;37.13;;;21.75;;
44270;SDS011;29963;44.594;11.368;2023-03-01T07:41:50;31.55;;;20.95;;
44270;SDS011;29963;44.594;11.368;2023-03-01T07:44:16;29.33;;;20.90;;
44270;SDS011;29963;44.594;11.368;2023-03-01T07:46:42;32.13;;;21.85;;
44270;SDS011;29963;44.594;11.368;2023-03-01T07:49:11;32.58;;;21.15;;
44270;SDS011;29963;44.594;11.368;2023-03-01T07:51:36;29.00;;;21.45;;
44270;SDS011;29963;44.594;11.368;2023-03-01T07:54:02;33.08;;;22.33;;
44270;SDS011;29963;44.594;11.368;2023-03-01T07:56:28;36.30;;;26.45;;
44270;SDS011;29963;44.594;11.368;2023-03-01T07:58:53;38.35;;;27.70;;
44270;SDS011;29963;44.594;11.368;2023-03-01T08:01:19;37.58;;;26.58;;
44270;SDS011;29963;44.594;11.368;2023-03-01T08:03:46;42.03;;;28.90;;
44270;SDS011;29963;44.594;11.368;2023-03-01T08:06:12;38.10;;;30.55;;
44270;SDS011;29963;44.594;11.368;2023-03-01T08:08:39;36.75;;;26.63;;
44270;SDS011;29963;44.594;11.368;2023-03-01T08:11:06;30.85;;;24.38;;
44270;SDS011;29963;44.594;11.368;2023-03-01T08:13:32;33.63;;;23.88;;
44270;SDS011;29963;44.594;11.368;2023-03-01T08:16:02;30.38;;;24.20;;
44270;SDS011;29963;44.594;11.368;2023-03-01T08:18:46;29.33;;;22.08;;
44270;SDS011;29963;44.594;11.368;2023-03-01T08:21:13;32.47;;;23.42;;
44270;SDS011;29963;44.594;11.368;2023-03-01T08:23:43;35.13;;;24.65;;
44270;SDS011;29963;44.594;11.368;2023-03-01T08:26:10;34.83;;;24.55;;
44270;SDS011;29963;44.594;11.368;2023-03-01T08:28:37;40.88;;;25.00;;
44270;SDS011;29963;44.594;11.368;2023-03-01T08:31:02;36.88;;;25.40;;
44270;SDS011;29963;44.594;11.368;2023-03-01T08:33:28;32.45;;;23.45;;
44270;SDS011;29963;44.594;11.368;2023-03-01T08:36:02;33.67;;;24.10;;
44270;SDS011;29963;44.594;11.368;2023-03-01T08:38:31;32.83;;;22.58;;
44270;SDS011;29963;44.594;11.368;2023-03-01T08:41:01;33.20;;;23.15;;
44270;SDS011;29963;44.594;11.368;2023-03-01T08:43:28;30.23;;;22.95;;
44270;SDS011;29963;44.594;11.368;2023-03-01T08:45:57;36.58;;;24.33;;
44270;SDS011;29963;44.594;11.368;2023-03-01T08:48:22;37.58;;;24.67;;
44270;SDS011;29963;44.594;11.368;2023-03-01T08:50:48;35.92;;;24.58;;
44270;SDS011;29963;44.594;11.368;2023-03-01T08:53:13;35.08;;;22.92;;
44270;SDS011;29963;44.594;11.368;2023-03-01T08:55:39;37.55;;;25.88;;
44270;SDS011;29963;44.594;11.368;2023-03-01T08:58:05;35.75;;;25.88;;
44270;SDS011;29963;44.594;11.368;2023-03-01T09:00:30;40.65;;;24.13;;
44270;SDS011;29963;44.594;11.368;2023-03-01T09:02:59;32.55;;;24.45;;
44270;SDS011;29963;44.594;11.368;2023-03-01T09:05:25;39.63;;;26.95;;
44270;SDS011;29963;44.594;11.368;2023-03-01T09:07:51;42.42;;;26.15;;
44270;SDS011;29963;44.594;11.368;2023-03-01T09:10:16;36.40;;;25.67;;
44270;SDS011;29963;44.594;11.368;2023-03-01T09:12:43;40.00;;;27.77;;
44270;SDS011;29963;44.594;11.368;2023-03-01T09:15:11;40.08;;;27.92;;
44270;SDS011;29963;44.594;11.368;2023-03-01T09:17:37;42.45;;;30.60;;
44270;SDS011;29963;44.594;11.368;2023-03-01T09:20:02;40.65;;;29.40;;
44270;SDS011;29963;44.594;11.368;2023-03-01T09:22:30;42.65;;;31.20;;
44270;SDS011;29963;44.594;11.368;2023-03-01T09:24:58;46.42;;;32.15;;
44270;SDS011;29963;44.594;11.368;2023-03-01T09:27:24;51.70;;;32.72;;
44270;SDS011;29963;44.594;11.368;2023-03-01T09:29:50;50.90;;;33.53;;
44270;SDS011;29963;44.594;11.368;2023-03-01T09:32:15;49.47;;;34.45;;
44270;SDS011;29963;44.594;11.368;2023-03-01T09:34:41;49.22;;;32.78;;
44270;SDS011;29963;44.594;11.368;2023-03-01T09:37:26;50.60;;;34.22;;
44270;SDS011;29963;44.594;11.368;2023-03-01T09:39:51;49.90;;;33.40;;
44270;SDS011;29963;44.594;11.368;2023-03-01T09:42:17;48.75;;;34.03;;
44270;SDS011;29963;44.594;11.368;2023-03-01T09:44:48;54.95;;;35.30;;
44270;SDS011;29963;44.594;11.368;2023-03-01T09:47:35;48.63;;;34.70;;
44270;SDS011;29963;44.594;11.368;2023-03-01T09:50:06;44.75;;;31.30;;
44270;SDS011;29963;44.594;11.368;2023-03-01T09:52:46;49.97;;;33.88;;
44270;SDS011;29963;44.594;11.368;2023-03-01T09:55:26;43.30;;;30.80;;
44270;SDS011;29963;44.594;11.368;2023-03-01T09:58:45;46.10;;;30.75;;
44270;SDS011;29963;44.594;11.368;2023-03-01T10:01:02;38.70;;;27.00;;
44270;SDS011;29963;44.594;11.368;2023-03-01T10:03:43;41.63;;;28.05;;
44270;SDS011;29963;44.594;11.368;2023-03-01T10:06:23;36.00;;;26.05;;
44270;SDS011;29963;44.594;11.368;2023-03-01T10:11:32;38.97;;;27.02;;
44270;SDS011;29963;44.594;11.368;2023-03-01T10:14:03;37.92;;;26.63;;
44270;SDS011;29963;44.594;11.368;2023-03-01T10:19:30;40.63;;;26.98;;
44270;SDS011;29963;44.594;11.368;2023-03-01T10:22:16;41.83;;;27.83;;
44270;SDS011;29963;44.594;11.368;2023-03-01T10:24:46;40.40;;;28.67;;
44270;SDS011;29963;44.594;11.368;2023-03-01T10:29:50;45.45;;;28.70;;
44270;SDS011;29963;44.594;11.368;2023-03-01T10:32:42;42.47;;;28.15;;
44270;SDS011;29963;44.594;11.368;2023-03-01T10:35:15;43.58;;;28.48;;
44270;SDS011;29963;44.594;11.368;2023-03-01T10:37:56;43.40;;;29.20;;
44270;SDS011;29963;44.594;11.368;2023-03-01T10:40:22;41.83;;;28.83;;
44270;SDS011;29963;44.594;11.368;2023-03-01T10:42:48;42.67;;;30.45;;
44270;SDS011;29963;44.594;11.368;2023-03-01T10:45:16;38.20;;;28.55;;
44270;SDS011;29963;44.594;11.368;2023-03-01T10:48:05;37.95;;;26.25;;
44270;SDS011;29963;44.594;11.368;2023-03-01T10:50:31;40.15;;;26.15;;
44270;SDS011;29963;44.594;11.368;2023-03-01T10:53:04;43.13;;;30.30;;
44270;SDS011;29963;44.594;11.368;2023-03-01T10:58:06;33.92;;;26.90;;
44270;SDS011;29963;44.594;11.368;2023-03-01T11:00:51;37.17;;;26.63;;
44270;SDS011;29963;44.594;11.368;2023-03-01T11:03:21;36.30;;;26.13;;
44270;SDS011;29963;44.594;11.368;2023-03-01T11:08:43;35.63;;;24.75;;
44270;SDS011;29963;44.594;11.368;2023-03-01T11:11:18;36.70;;;25.25;;
44270;SDS011;29963;44.594;11.368;2023-03-01T11:13:50;33.13;;;24.98;;
44270;SDS011;29963;44.594;11.368;2023-03-01T11:16:40;33.65;;;24.55;;
44270;SDS011;29963;44.594;11.368;2023-03-01T11:21:35;36.38;;;24.92;;
44270;SDS011;29963;44.594;11.368;2023-03-01T11:24:37;30.95;;;22.95;;
44270;SDS011;29963;44.594;11.368;2023-03-01T11:27:14;35.80;;;24.17;;
44270;SDS011;29963;44.594;11.368;2023-03-01T11:29:42;42.13;;;25.60;;
44270;SDS011;29963;44.594;11.368;2023-03-01T11:32:27;36.28;;;24.58;;
44270;SDS011;29963;44.594;11.368;2023-03-01T11:35:10;37.10;;;25.75;;
44270;SDS011;29963;44.594;11.368;2023-03-01T11:37:58;36.67;;;25.55;;
44270;SDS011;29963;44.594;11.368;2023-03-01T11:43:41;33.83;;;24.52;;
44270;SDS011;29963;44.594;11.368;2023-03-01T11:51:41;38.92;;;24.83;;
44270;SDS011;29963;44.594;11.368;2023-03-01T11:54:47;39.85;;;24.17;;
44270;SDS011;29963;44.594;11.368;2023-03-01T12:03:17;32.45;;;23.90;;
44270;SDS011;29963;44.594;11.368;2023-03-01T12:09:01;38.20;;;24.65;;
44270;SDS011;29963;44.594;11.368;2023-03-01T12:22:40;38.63;;;25.08;;
44270;SDS011;29963;44.594;11.368;2023-03-01T12:33:31;40.60;;;28.40;;
44270;SDS011;29963;44.594;11.368;2023-03-01T12:44:12;35.78;;;25.98;;
44270;SDS011;29963;44.594;11.368;2023-03-01T12:50:24;34.17;;;25.40;;
44270;SDS011;29963;44.594;11.368;2023-03-01T12:53:01;36.80;;;25.65;;
44270;SDS011;29963;44.594;11.368;2023-03-01T12:55:34;37.25;;;26.63;;
44270;SDS011;29963;44.594;11.368;2023-03-01T13:06:03;37.97;;;24.58;;
44270;SDS011;29963;44.594;11.368;2023-03-01T13:08:43;37.03;;;25.15;;
44270;SDS011;29963;44.594;11.368;2023-03-01T13:11:31;36.30;;;25.48;;
44270;SDS011;29963;44.594;11.368;2023-03-01T13:14:34;39.92;;;26.13;;
44270;SDS011;29963;44.594;11.368;2023-03-01T13:16:44;43.53;;;26.60;;
44270;SDS011;29963;44.594;11.368;2023-03-01T13:19:20;41.10;;;28.65;;
44270;SDS011;29963;44.594;11.368;2023-03-01T13:21:48;48.00;;;29.83;;
44270;SDS011;29963;44.594;11.368;2023-03-01T13:29:48;41.70;;;30.63;;
44270;SDS011;29963;44.594;11.368;2023-03-01T13:37:42;43.30;;;29.17;;
44270;SDS011;29963;44.594;11.368;2023-03-01T13:42:42;40.25;;;28.25;;
44270;SDS011;29963;44.594;11.368;2023-03-01T13:45:18;45.05;;;29.90;;
44270;SDS011;29963;44.594;11.368;2023-03-01T13:47:44;45.70;;;29.77;;
44270;SDS011;29963;44.594;11.368;2023-03-01T13:50:18;47.83;;;31.92;;
44270;SDS011;29963;44.594;11.368;2023-03-01T13:52:55;42.38;;;29.17;;
44270;SDS011;29963;44.594;11.368;2023-03-01T13:55:46;43.22;;;28.85;;
44270;SDS011;29963;44.594;11.368;2023-03-01T13:58:16;42.83;;;28.90;;
44270;SDS011;29963;44.594;11.368;2023-03-01T14:00:46;43.08;;;30.65;;
44270;SDS011;29963;44.594;11.368;2023-03-01T14:03:18;42.95;;;27.33;;
44270;SDS011;29963;44.594;11.368;2023-03-01T14:08:26;44.03;;;30.35;;
44270;SDS011;29963;44.594;11.368;2023-03-01T14:13:35;42.38;;;29.38;;
44270;SDS011;29963;44.594;11.368;2023-03-01T14:19:01;44.50;;;30.00;;
44270;SDS011;29963;44.594;11.368;2023-03-01T14:21:42;39.88;;;27.67;;
44270;SDS011;29963;44.594;11.368;2023-03-01T14:24:18;46.22;;;32.00;;
44270;SDS011;29963;44.594;11.368;2023-03-01T14:26:46;45.08;;;31.08;;
44270;SDS011;29963;44.594;11.368;2023-03-01T14:29:25;41.47;;;30.40;;
44270;SDS011;29963;44.594;11.368;2023-03-01T14:34:57;40.35;;;29.00;;
44270;SDS011;29963;44.594;11.368;2023-03-01T14:37:28;46.17;;;31.73;;
44270;SDS011;29963;44.594;11.368;2023-03-01T14:40:00;45.55;;;32.10;;
44270;SDS011;29963;44.594;11.368;2023-03-01T14:42:28;49.50;;;33.08;;
44270;SDS011;29963;44.594;11.368;2023-03-01T14:44:58;52.92;;;34.85;;
44270;SDS011;29963;44.594;11.368;2023-03-01T14:49:57;46.13;;;32.45;;
44270;SDS011;29963;44.594;11.368;2023-03-01T14:52:39;45.80;;;31.60;;
44270;SDS011;29963;44.594;11.368;2023-03-01T14:55:13;47.38;;;33.28;;
44270;SDS011;29963;44.594;11.368;2023-03-01T14:57:51;50.00;;;33.60;;
44270;SDS011;29963;44.594;11.368;2023-03-01T15:02:46;54.25;;;35.28;;
44270;SDS011;29963;44.594;11.368;2023-03-01T15:05:13;48.92;;;33.75;;
44270;SDS011;29963;44.594;11.368;2023-03-01T15:07:40;47.30;;;33.35;;
44270;SDS011;29963;44.594;11.368;2023-03-01T15:10:17;49.03;;;33.65;;
44270;SDS011;29963;44.594;11.368;2023-03-01T15:12:46;48.58;;;33.60;;
44270;SDS011;29963;44.594;11.368;2023-03-01T15:15:33;51.00;;;34.50;;
44270;SDS011;29963;44.594;11.368;2023-03-01T15:18:19;46.58;;;31.45;;
44270;SDS011;29963;44.594;11.368;2023-03-01T15:20:52;48.40;;;32.58;;
44270;SDS011;29963;44.594;11.368;2023-03-01T15:23:20;47.33;;;32.30;;
44270;SDS011;29963;44.594;11.368;2023-03-01T15:25:49;45.35;;;32.60;;
44270;SDS011;29963;44.594;11.368;2023-03-01T15:28:29;46.33;;;32.05;;
44270;SDS011;29963;44.594;11.368;2023-03-01T15:31:00;46.60;;;31.58;;
44270;SDS011;29963;44.594;11.368;2023-03-01T15:33:44;43.40;;;30.30;;
44270;SDS011;29963;44.594;11.368;2023-03-01T15:38:58;47.33;;;30.52;;
44270;SDS011;29963;44.594;11.368;2023-03-01T15:44:01;48.80;;;32.95;;
44270;SDS011;29963;44.594;11.368;2023-03-01T15:46:46;51.63;;;33.95;;
44270;SDS011;29963;44.594;11.368;2023-03-01T15:52:05;50.28;;;32.53;;
44270;SDS011;29963;44.594;11.368;2023-03-01T15:54:38;46.95;;;33.60;;
44270;SDS011;29963;44.594;11.368;2023-03-01T15:57:05;43.13;;;29.67;;
44270;SDS011;29963;44.594;11.368;2023-03-01T15:59:37;48.20;;;32.97;;
44270;SDS011;29963;44.594;11.368;2023-03-01T16:02:07;46.83;;;32.05;;
44270;SDS011;29963;44.594;11.368;2023-03-01T16:04:34;50.35;;;31.63;;
44270;SDS011;29963;44.594;11.368;2023-03-01T16:06:59;47.38;;;33.08;;
44270;SDS011;29963;44.594;11.368;2023-03-01T16:09:26;43.97;;;31.70;;
44270;SDS011;29963;44.594;11.368;2023-03-01T16:11:52;49.75;;;33.00;;
44270;SDS011;29963;44.594;11.368;2023-03-01T16:14:18;51.95;;;34.33;;
44270;SDS011;29963;44.594;11.368;2023-03-01T16:16:44;51.25;;;35.58;;
44270;SDS011;29963;44.594;11.368;2023-03-01T16:19:10;47.40;;;33.70;;
44270;SDS011;29963;44.594;11.368;2023-03-01T16:21:36;49.58;;;34.58;;
44270;SDS011;29963;44.594;11.368;2023-03-01T16:24:02;52.28;;;33.92;;
44270;SDS011;29963;44.594;11.368;2023-03-01T16:26:28;52.47;;;34.53;;
44270;SDS011;29963;44.594;11.368;2023-03-01T16:28:55;47.80;;;31.95;;
44270;SDS011;29963;44.594;11.368;2023-03-01T16:31:21;44.00;;;30.80;;
44270;SDS011;29963;44.594;11.368;2023-03-01T16:33:47;44.35;;;31.65;;